sensor_id;sensor_type;location;lat;lon;timestamp;pressure;altitude;pressure_sealevel;temperature;humidity
43420;BME280;29017;51.514;-0.178;2022-11-28T00:00:28;100438.66;;;13.19;95.43
43420;BME280;29017;51.514;-0.178;2022-11-28T00:02:55;100439.81;;;13.17;95.75
43420;BME280;29017;51.514;-0.178;2022-11-28T00:05:23;100425.97;;;13.15;95.88
43420;BME280;29017;51.514;-0.178;2022-11-28T00:07:50;100435.19;;;13.11;95.68
43420;BME280;29017;51.514;-0.178;2022-11-28T00:10:17;100431.28;;;13.07;95.73
43420;BME280;29017;51.514;-0.178;2022-11-28T00:12:46;100430.00;;;13.03;95.66
43420;BME280;29017;51.514;-0.178;2022-11-28T00:15:13;100424.88;;;13.01;95.77
43420;BME280;29017;51.514;-0.178;2022-11-28T00:17:40;100420.34;;;12.95;95.64
43420;BME280;29017;51.514;-0.178;2022-11-28T00:20:07;100416.06;;;12.94;96.73
43420;BME280;29017;51.514;-0.178;2022-11-28T00:22:35;100416.69;;;12.96;97.06
43420;BME280;29017;51.514;-0.178;2022-11-28T00:25:02;100417.69;;;12.95;97.39
43420;BME280;29017;51.514;-0.178;2022-11-28T00:27:29;100423.16;;;12.94;97.19
43420;BME280;29017;51.514;-0.178;2022-11-28T00:29:56;100429.25;;;12.94;97.30
43420;BME280;29017;51.514;-0.178;2022-11-28T00:32:23;100433.72;;;12.94;96.91
43420;BME280;29017;51.514;-0.178;2022-11-28T00:34:50;100426.34;;;12.89;96.69
43420;BME280;29017;51.514;-0.178;2022-11-28T00:37:17;100422.38;;;12.85;96.72
43420;BME280;29017;51.514;-0.178;2022-11-28T00:39:50;100423.75;;;12.81;96.74
43420;BME280;29017;51.514;-0.178;2022-11-28T00:42:17;100415.19;;;12.79;97.26
43420;BME280;29017;51.514;-0.178;2022-11-28T00:44:48;100418.38;;;12.74;97.25
43420;BME280;29017;51.514;-0.178;2022-11-28T00:47:15;100410.78;;;12.71;97.23
43420;BME280;29017;51.514;-0.178;2022-11-28T00:53:00;100399.59;;;12.69;98.58
43420;BME280;29017;51.514;-0.178;2022-11-28T00:55:27;100392.00;;;12.66;98.42
43420;BME280;29017;51.514;-0.178;2022-11-28T00:57:54;100383.81;;;12.61;97.90
43420;BME280;29017;51.514;-0.178;2022-11-28T01:00:21;100392.09;;;12.58;98.19
43420;BME280;29017;51.514;-0.178;2022-11-28T01:02:50;100388.16;;;12.54;97.89
43420;BME280;29017;51.514;-0.178;2022-11-28T01:05:17;100397.59;;;12.49;97.72
43420;BME280;29017;51.514;-0.178;2022-11-28T01:07:45;100382.31;;;12.44;97.71
43420;BME280;29017;51.514;-0.178;2022-11-28T01:13:31;100385.44;;;12.39;97.69
43420;BME280;29017;51.514;-0.178;2022-11-28T01:15:58;100380.88;;;12.33;97.53
43420;BME280;29017;51.514;-0.178;2022-11-28T01:18:25;100378.59;;;12.30;97.26
43420;BME280;29017;51.514;-0.178;2022-11-28T01:20:52;100378.78;;;12.29;97.23
43420;BME280;29017;51.514;-0.178;2022-11-28T01:23:19;100379.09;;;12.26;97.55
43420;BME280;29017;51.514;-0.178;2022-11-28T01:25:56;100384.38;;;12.26;97.40
43420;BME280;29017;51.514;-0.178;2022-11-28T01:28:23;100380.41;;;12.30;97.56
43420;BME280;29017;51.514;-0.178;2022-11-28T01:30:50;100376.78;;;12.31;97.57
43420;BME280;29017;51.514;-0.178;2022-11-28T01:33:17;100375.13;;;12.30;97.28
43420;BME280;29017;51.514;-0.178;2022-11-28T01:35:53;100370.03;;;12.28;96.74
43420;BME280;29017;51.514;-0.178;2022-11-28T01:41:38;100367.13;;;12.15;96.14
43420;BME280;29017;51.514;-0.178;2022-11-28T01:46:33;100367.81;;;12.17;96.37
43420;BME280;29017;51.514;-0.178;2022-11-28T01:49:14;100370.59;;;12.16;95.71
43420;BME280;29017;51.514;-0.178;2022-11-28T01:51:45;100373.06;;;12.17;95.61
43420;BME280;29017;51.514;-0.178;2022-11-28T01:54:13;100365.50;;;12.14;95.20
43420;BME280;29017;51.514;-0.178;2022-11-28T01:56:44;100364.69;;;12.14;95.44
43420;BME280;29017;51.514;-0.178;2022-11-28T01:59:15;100356.78;;;12.14;95.96
43420;BME280;29017;51.514;-0.178;2022-11-28T02:01:43;100353.13;;;12.15;96.24
43420;BME280;29017;51.514;-0.178;2022-11-28T02:04:11;100338.50;;;12.12;96.26
43420;BME280;29017;51.514;-0.178;2022-11-28T02:06:40;100344.28;;;12.08;96.13
43420;BME280;29017;51.514;-0.178;2022-11-28T02:09:09;100345.44;;;12.05;95.58
43420;BME280;29017;51.514;-0.178;2022-11-28T02:14:20;100337.25;;;12.00;95.36
43420;BME280;29017;51.514;-0.178;2022-11-28T02:16:56;100339.06;;;11.99;95.12
43420;BME280;29017;51.514;-0.178;2022-11-28T02:27:18;100347.69;;;11.93;94.54
43420;BME280;29017;51.514;-0.178;2022-11-28T02:42:41;100328.41;;;11.93;93.89
43420;BME280;29017;51.514;-0.178;2022-11-28T02:47:44;100334.66;;;11.92;93.97
43420;BME280;29017;51.514;-0.178;2022-11-28T02:53:32;100333.69;;;11.85;94.35
43420;BME280;29017;51.514;-0.178;2022-11-28T02:55:59;100332.41;;;11.81;94.44
43420;BME280;29017;51.514;-0.178;2022-11-28T02:58:30;100327.50;;;11.78;93.68
43420;BME280;29017;51.514;-0.178;2022-11-28T03:00:57;100323.06;;;11.78;94.07
43420;BME280;29017;51.514;-0.178;2022-11-28T03:03:31;100320.59;;;11.77;94.27
43420;BME280;29017;51.514;-0.178;2022-11-28T03:18:33;100320.75;;;11.75;94.86
43420;BME280;29017;51.514;-0.178;2022-11-28T03:21:12;100317.78;;;11.70;94.42
43420;BME280;29017;51.514;-0.178;2022-11-28T03:23:47;100326.84;;;11.68;94.75
43420;BME280;29017;51.514;-0.178;2022-11-28T03:36:15;100338.41;;;11.58;93.74
43420;BME280;29017;51.514;-0.178;2022-11-28T03:38:51;100340.41;;;11.56;93.49
43420;BME280;29017;51.514;-0.178;2022-11-28T03:41:28;100336.13;;;11.55;93.80
43420;BME280;29017;51.514;-0.178;2022-11-28T03:43:57;100336.47;;;11.52;93.86
43420;BME280;29017;51.514;-0.178;2022-11-28T03:46:26;100336.63;;;11.51;93.29
43420;BME280;29017;51.514;-0.178;2022-11-28T03:48:57;100342.22;;;11.48;93.03
43420;BME280;29017;51.514;-0.178;2022-11-28T03:51:28;100340.41;;;11.48;93.94
43420;BME280;29017;51.514;-0.178;2022-11-28T03:53:59;100346.53;;;11.49;94.09
43420;BME280;29017;51.514;-0.178;2022-11-28T03:59:08;100350.34;;;11.46;93.45
43420;BME280;29017;51.514;-0.178;2022-11-28T04:04:10;100350.19;;;11.40;93.24
43420;BME280;29017;51.514;-0.178;2022-11-28T04:09:17;100343.31;;;11.31;93.63
43420;BME280;29017;51.514;-0.178;2022-11-28T04:11:48;100360.09;;;11.30;93.66
43420;BME280;29017;51.514;-0.178;2022-11-28T04:14:20;100356.97;;;11.26;93.74
43420;BME280;29017;51.514;-0.178;2022-11-28T04:22:00;100347.75;;;11.30;95.08
43420;BME280;29017;51.514;-0.178;2022-11-28T04:24:30;100348.72;;;11.29;94.58
43420;BME280;29017;51.514;-0.178;2022-11-28T04:27:00;100350.72;;;11.27;94.06
43420;BME280;29017;51.514;-0.178;2022-11-28T04:29:33;100350.53;;;11.29;94.85
43420;BME280;29017;51.514;-0.178;2022-11-28T04:32:01;100353.00;;;11.30;95.18
43420;BME280;29017;51.514;-0.178;2022-11-28T04:34:29;100353.00;;;11.30;95.00
43420;BME280;29017;51.514;-0.178;2022-11-28T04:36:58;100347.41;;;11.33;94.97
43420;BME280;29017;51.514;-0.178;2022-11-28T04:39:33;100346.41;;;11.34;94.94
43420;BME280;29017;51.514;-0.178;2022-11-28T04:44:39;100357.47;;;11.30;94.17
43420;BME280;29017;51.514;-0.178;2022-11-28T04:47:10;100351.03;;;11.32;94.40
43420;BME280;29017;51.514;-0.178;2022-11-28T04:52:55;100353.16;;;11.29;93.54
43420;BME280;29017;51.514;-0.178;2022-11-28T04:57:51;100347.94;;;11.21;93.36
43420;BME280;29017;51.514;-0.178;2022-11-28T05:00:22;100353.88;;;11.14;93.10
43420;BME280;29017;51.514;-0.178;2022-11-28T05:02:50;100357.34;;;11.15;93.59
43420;BME280;29017;51.514;-0.178;2022-11-28T05:05:20;100366.06;;;11.15;93.38
43420;BME280;29017;51.514;-0.178;2022-11-28T05:07:48;100356.66;;;11.13;93.22
43420;BME280;29017;51.514;-0.178;2022-11-28T05:10:15;100357.69;;;11.12;93.44
43420;BME280;29017;51.514;-0.178;2022-11-28T05:12:42;100358.81;;;11.09;93.27
43420;BME280;29017;51.514;-0.178;2022-11-28T05:15:10;100356.53;;;11.06;93.04
43420;BME280;29017;51.514;-0.178;2022-11-28T05:17:40;100351.59;;;11.03;93.49
43420;BME280;29017;51.514;-0.178;2022-11-28T05:20:10;100347.63;;;11.07;95.54
43420;BME280;29017;51.514;-0.178;2022-11-28T05:22:37;100354.06;;;11.05;95.21
43420;BME280;29017;51.514;-0.178;2022-11-28T05:25:05;100346.31;;;11.03;94.73
43420;BME280;29017;51.514;-0.178;2022-11-28T05:30:57;100347.00;;;10.97;94.49
43420;BME280;29017;51.514;-0.178;2022-11-28T05:33:23;100343.72;;;10.95;94.36
43420;BME280;29017;51.514;-0.178;2022-11-28T05:35:51;100346.34;;;10.95;94.95
43420;BME280;29017;51.514;-0.178;2022-11-28T05:38:18;100348.00;;;10.96;95.38
43420;BME280;29017;51.514;-0.178;2022-11-28T05:40:50;100346.34;;;10.95;95.15
43420;BME280;29017;51.514;-0.178;2022-11-28T05:43:18;100344.53;;;10.96;95.24
43420;BME280;29017;51.514;-0.178;2022-11-28T05:45:45;100353.41;;;10.95;95.02
43420;BME280;29017;51.514;-0.178;2022-11-28T05:48:13;100356.06;;;10.95;94.35
43420;BME280;29017;51.514;-0.178;2022-11-28T05:50:40;100354.41;;;10.94;94.30
43420;BME280;29017;51.514;-0.178;2022-11-28T05:53:07;100361.47;;;10.93;93.75
43420;BME280;29017;51.514;-0.178;2022-11-28T05:55:36;100361.81;;;10.90;93.40
43420;BME280;29017;51.514;-0.178;2022-11-28T05:58:03;100363.97;;;10.87;93.14
43420;BME280;29017;51.514;-0.178;2022-11-28T06:00:30;100370.72;;;10.81;93.25
43420;BME280;29017;51.514;-0.178;2022-11-28T06:02:59;100364.63;;;10.81;93.90
43420;BME280;29017;51.514;-0.178;2022-11-28T06:05:30;100366.09;;;10.83;94.05
43420;BME280;29017;51.514;-0.178;2022-11-28T06:08:12;100369.56;;;10.84;94.18
43420;BME280;29017;51.514;-0.178;2022-11-28T06:10:39;100366.09;;;10.83;94.07
43420;BME280;29017;51.514;-0.178;2022-11-28T06:13:08;100366.09;;;10.83;93.90
43420;BME280;29017;51.514;-0.178;2022-11-28T06:15:35;100362.63;;;10.83;94.38
43420;BME280;29017;51.514;-0.178;2022-11-28T06:21:22;100370.22;;;10.86;94.55
43420;BME280;29017;51.514;-0.178;2022-11-28T06:23:49;100358.88;;;10.85;94.12
43420;BME280;29017;51.514;-0.178;2022-11-28T06:26:18;100357.22;;;10.84;94.35
43420;BME280;29017;51.514;-0.178;2022-11-28T06:28:45;100363.47;;;10.83;93.83
43420;BME280;29017;51.514;-0.178;2022-11-28T06:31:14;100356.06;;;10.87;95.16
43420;BME280;29017;51.514;-0.178;2022-11-28T06:33:44;100353.44;;;10.87;94.91
43420;BME280;29017;51.514;-0.178;2022-11-28T06:36:12;100364.97;;;10.86;94.40
43420;BME280;29017;51.514;-0.178;2022-11-28T06:38:39;100358.88;;;10.85;94.04
43420;BME280;29017;51.514;-0.178;2022-11-28T06:41:07;100368.41;;;10.86;94.39
43420;BME280;29017;51.514;-0.178;2022-11-28T06:43:35;100366.41;;;10.88;94.27
43420;BME280;29017;51.514;-0.178;2022-11-28T06:52:41;100369.22;;;10.95;94.91
43420;BME280;29017;51.514;-0.178;2022-11-28T06:55:08;100378.09;;;10.94;94.54
43420;BME280;29017;51.514;-0.178;2022-11-28T06:57:35;100381.22;;;10.89;94.13
43420;BME280;29017;51.514;-0.178;2022-11-28T07:00:04;100372.50;;;10.89;94.84
43420;BME280;29017;51.514;-0.178;2022-11-28T07:02:32;100367.41;;;10.87;94.63
43420;BME280;29017;51.514;-0.178;2022-11-28T07:04:59;100368.41;;;10.86;95.02
43420;BME280;29017;51.514;-0.178;2022-11-28T07:07:26;100378.13;;;10.86;94.74
43420;BME280;29017;51.514;-0.178;2022-11-28T07:09:54;100375.63;;;10.84;94.62
43420;BME280;29017;51.514;-0.178;2022-11-28T07:12:21;100377.28;;;10.85;94.75
43420;BME280;29017;51.514;-0.178;2022-11-28T07:14:48;100378.28;;;10.84;94.49
43420;BME280;29017;51.514;-0.178;2022-11-28T07:17:14;100370.53;;;10.83;94.38
43420;BME280;29017;51.514;-0.178;2022-11-28T07:19:42;100368.72;;;10.83;94.16
43420;BME280;29017;51.514;-0.178;2022-11-28T07:22:15;100371.03;;;10.78;93.69
43420;BME280;29017;51.514;-0.178;2022-11-28T07:24:45;100370.06;;;10.79;93.91
43420;BME280;29017;51.514;-0.178;2022-11-28T07:27:14;100371.03;;;10.78;93.84
43420;BME280;29017;51.514;-0.178;2022-11-28T07:29:48;100373.66;;;10.78;93.86
43420;BME280;29017;51.514;-0.178;2022-11-28T07:32:15;100376.97;;;10.80;94.30
43420;BME280;29017;51.514;-0.178;2022-11-28T07:34:43;100384.84;;;10.80;94.28
43420;BME280;29017;51.514;-0.178;2022-11-28T07:37:15;100381.41;;;10.80;93.67
43420;BME280;29017;51.514;-0.178;2022-11-28T07:39:42;100386.50;;;10.81;94.25
43420;BME280;29017;51.514;-0.178;2022-11-28T07:42:10;100377.78;;;10.81;93.77
43420;BME280;29017;51.514;-0.178;2022-11-28T07:44:37;100378.78;;;10.80;94.28
43420;BME280;29017;51.514;-0.178;2022-11-28T07:47:07;100381.41;;;10.80;94.50
43420;BME280;29017;51.514;-0.178;2022-11-28T07:49:34;100382.22;;;10.80;94.53
43420;BME280;29017;51.514;-0.178;2022-11-28T07:52:02;100375.16;;;10.81;94.55
43420;BME280;29017;51.514;-0.178;2022-11-28T07:54:29;100376.13;;;10.80;94.12
43420;BME280;29017;51.514;-0.178;2022-11-28T07:56:56;100380.41;;;10.81;93.81
43420;BME280;29017;51.514;-0.178;2022-11-28T07:59:39;100380.41;;;10.81;93.95
43420;BME280;29017;51.514;-0.178;2022-11-28T08:02:08;100375.97;;;10.81;94.17
43420;BME280;29017;51.514;-0.178;2022-11-28T08:04:35;100376.97;;;10.80;94.06
43420;BME280;29017;51.514;-0.178;2022-11-28T08:07:11;100374.34;;;10.80;93.91
43420;BME280;29017;51.514;-0.178;2022-11-28T08:09:38;100380.56;;;10.79;94.07
43420;BME280;29017;51.514;-0.178;2022-11-28T08:12:06;100386.31;;;10.83;94.15
43420;BME280;29017;51.514;-0.178;2022-11-28T08:14:33;100381.06;;;10.83;93.96
43420;BME280;29017;51.514;-0.178;2022-11-28T08:20:19;100383.38;;;10.86;93.98
43420;BME280;29017;51.514;-0.178;2022-11-28T08:22:46;100381.22;;;10.89;94.41
43420;BME280;29017;51.514;-0.178;2022-11-28T08:25:15;100387.97;;;10.92;94.39
43420;BME280;29017;51.514;-0.178;2022-11-28T08:27:43;100384.03;;;10.96;94.73
43420;BME280;29017;51.514;-0.178;2022-11-28T08:30:11;100388.78;;;11.00;95.11
43420;BME280;29017;51.514;-0.178;2022-11-28T08:32:39;100387.63;;;11.03;95.14
43420;BME280;29017;51.514;-0.178;2022-11-28T08:35:09;100390.91;;;11.05;94.72
43420;BME280;29017;51.514;-0.178;2022-11-28T08:37:36;100378.91;;;11.02;94.37
43420;BME280;29017;51.514;-0.178;2022-11-28T08:40:04;100377.75;;;11.05;94.21
43420;BME280;29017;51.514;-0.178;2022-11-28T08:42:32;100382.69;;;11.08;94.34
43420;BME280;29017;51.514;-0.178;2022-11-28T08:44:59;100383.34;;;11.10;94.33
43420;BME280;29017;51.514;-0.178;2022-11-28T08:47:26;100392.06;;;11.10;94.06
43420;BME280;29017;51.514;-0.178;2022-11-28T08:49:54;100396.16;;;11.13;93.97
43420;BME280;29017;51.514;-0.178;2022-11-28T08:52:21;100390.75;;;11.14;94.05
43420;BME280;29017;51.514;-0.178;2022-11-28T08:54:49;100385.31;;;11.16;93.99
43420;BME280;29017;51.514;-0.178;2022-11-28T08:57:16;100396.47;;;11.18;93.75
43420;BME280;29017;51.514;-0.178;2022-11-28T08:59:43;100389.25;;;11.20;94.06
43420;BME280;29017;51.514;-0.178;2022-11-28T09:02:11;100396.66;;;11.25;94.27
43420;BME280;29017;51.514;-0.178;2022-11-28T09:04:38;100394.16;;;11.31;94.48
43420;BME280;29017;51.514;-0.178;2022-11-28T09:07:06;100390.56;;;11.32;93.90
43420;BME280;29017;51.514;-0.178;2022-11-28T09:09:36;100386.06;;;11.33;93.61
43420;BME280;29017;51.514;-0.178;2022-11-28T09:12:06;100384.78;;;11.37;93.92
43420;BME280;29017;51.514;-0.178;2022-11-28T09:14:39;100378.50;;;11.38;93.97
43420;BME280;29017;51.514;-0.178;2022-11-28T09:17:06;100379.16;;;11.40;93.78
43420;BME280;29017;51.514;-0.178;2022-11-28T09:19:36;100379.81;;;11.42;93.78
43420;BME280;29017;51.514;-0.178;2022-11-28T09:22:07;100384.38;;;11.48;93.69
43420;BME280;29017;51.514;-0.178;2022-11-28T09:24:34;100383.25;;;11.50;92.94
43420;BME280;29017;51.514;-0.178;2022-11-28T09:27:04;100376.78;;;11.53;92.80
43420;BME280;29017;51.514;-0.178;2022-11-28T09:29:32;100386.19;;;11.55;93.03
43420;BME280;29017;51.514;-0.178;2022-11-28T09:31:59;100382.22;;;11.59;93.02
43420;BME280;29017;51.514;-0.178;2022-11-28T09:34:27;100387.78;;;11.65;92.87
43420;BME280;29017;51.514;-0.178;2022-11-28T09:36:54;100380.38;;;11.68;92.92
43420;BME280;29017;51.514;-0.178;2022-11-28T09:39:27;100384.31;;;11.72;92.29
43420;BME280;29017;51.514;-0.178;2022-11-28T09:45:33;100386.13;;;11.80;92.09
43420;BME280;29017;51.514;-0.178;2022-11-28T09:48:02;100383.16;;;11.83;91.89
43420;BME280;29017;51.514;-0.178;2022-11-28T09:50:32;100380.31;;;11.84;92.08
43420;BME280;29017;51.514;-0.178;2022-11-28T09:55:36;100377.69;;;11.84;91.39
43420;BME280;29017;51.514;-0.178;2022-11-28T10:00:50;100398.25;;;11.89;91.19
43420;BME280;29017;51.514;-0.178;2022-11-28T10:19:08;100383.03;;;12.07;91.23
43420;BME280;29017;51.514;-0.178;2022-11-28T10:21:57;100399.47;;;12.09;90.54
43420;BME280;29017;51.514;-0.178;2022-11-28T10:24:33;100394.69;;;12.13;90.35
43420;BME280;29017;51.514;-0.178;2022-11-28T10:27:02;100400.28;;;12.18;89.59
43420;BME280;29017;51.514;-0.178;2022-11-28T10:29:32;100404.38;;;12.20;88.78
43420;BME280;29017;51.514;-0.178;2022-11-28T10:32:04;100406.47;;;12.25;88.30
43420;BME280;29017;51.514;-0.178;2022-11-28T10:34:39;100403.50;;;12.28;88.53
43420;BME280;29017;51.514;-0.178;2022-11-28T10:37:10;100399.34;;;12.33;88.70
43420;BME280;29017;51.514;-0.178;2022-11-28T10:39:41;100395.53;;;12.36;88.47
43420;BME280;29017;51.514;-0.178;2022-11-28T11:00:11;100399.81;;;12.37;87.16
43420;BME280;29017;51.514;-0.178;2022-11-28T11:02:43;100406.38;;;12.41;88.14
43420;BME280;29017;51.514;-0.178;2022-11-28T11:08:32;100398.13;;;12.44;87.51
43420;BME280;29017;51.514;-0.178;2022-11-28T11:16:13;100393.03;;;12.42;85.80
43420;BME280;29017;51.514;-0.178;2022-11-28T11:23:35;100402.69;;;12.50;86.24
43420;BME280;29017;51.514;-0.178;2022-11-28T11:26:04;100404.63;;;12.56;87.05
43420;BME280;29017;51.514;-0.178;2022-11-28T11:31:05;100409.66;;;12.66;86.72
43420;BME280;29017;51.514;-0.178;2022-11-28T11:36:51;100410.91;;;12.78;86.61
43420;BME280;29017;51.514;-0.178;2022-11-28T11:39:45;100407.56;;;12.84;86.60
43420;BME280;29017;51.514;-0.178;2022-11-28T11:42:18;100403.19;;;12.91;86.37
43420;BME280;29017;51.514;-0.178;2022-11-28T11:44:46;100402.03;;;12.94;85.95
43420;BME280;29017;51.514;-0.178;2022-11-28T11:47:15;100396.38;;;12.97;85.57
43420;BME280;29017;51.514;-0.178;2022-11-28T11:49:45;100392.38;;;13.01;84.79
43420;BME280;29017;51.514;-0.178;2022-11-28T11:52:20;100400.78;;;13.04;84.45
43420;BME280;29017;51.514;-0.178;2022-11-28T11:54:53;100394.50;;;13.05;84.49
43420;BME280;29017;51.514;-0.178;2022-11-28T11:57:23;100398.41;;;13.09;84.48
43420;BME280;29017;51.514;-0.178;2022-11-28T12:02:39;100395.44;;;13.12;83.07
43420;BME280;29017;51.514;-0.178;2022-11-28T12:05:09;100397.75;;;13.15;82.92
43420;BME280;29017;51.514;-0.178;2022-11-28T12:07:47;100400.00;;;13.18;82.22
43420;BME280;29017;51.514;-0.178;2022-11-28T12:10:17;100410.03;;;13.23;83.34
43420;BME280;29017;51.514;-0.178;2022-11-28T12:12:46;100406.31;;;13.32;84.23
43420;BME280;29017;51.514;-0.178;2022-11-28T12:15:14;100411.69;;;13.39;85.16
43420;BME280;29017;51.514;-0.178;2022-11-28T12:23:22;100414.72;;;13.36;83.59
43420;BME280;29017;51.514;-0.178;2022-11-28T13:08:29;100436.97;;;12.96;84.50
43420;BME280;29017;51.514;-0.178;2022-11-28T13:11:11;100440.09;;;12.99;85.28
43420;BME280;29017;51.514;-0.178;2022-11-28T13:16:52;100436.28;;;13.02;85.44
43420;BME280;29017;51.514;-0.178;2022-11-28T13:24:30;100445.47;;;13.06;85.32
43420;BME280;29017;51.514;-0.178;2022-11-28T13:27:03;100450.75;;;13.06;85.04
43420;BME280;29017;51.514;-0.178;2022-11-28T13:29:36;100444.50;;;13.07;84.89
43420;BME280;29017;51.514;-0.178;2022-11-28T13:34:33;100453.22;;;13.07;84.19
43420;BME280;29017;51.514;-0.178;2022-11-28T13:37:10;100453.88;;;13.09;84.53
43420;BME280;29017;51.514;-0.178;2022-11-28T13:45:33;100463.28;;;13.12;85.00
43420;BME280;29017;51.514;-0.178;2022-11-28T13:56:32;100463.63;;;13.09;86.32
43420;BME280;29017;51.514;-0.178;2022-11-28T13:58:59;100470.06;;;13.06;86.33
43420;BME280;29017;51.514;-0.178;2022-11-28T14:01:30;100469.25;;;13.06;86.29
43420;BME280;29017;51.514;-0.178;2022-11-28T14:07:28;100480.84;;;13.05;87.00
43420;BME280;29017;51.514;-0.178;2022-11-28T14:10:03;100480.00;;;13.04;87.74
43420;BME280;29017;51.514;-0.178;2022-11-28T14:12:44;100482.66;;;13.04;88.01
43420;BME280;29017;51.514;-0.178;2022-11-28T14:22:59;100482.81;;;13.03;88.56
43420;BME280;29017;51.514;-0.178;2022-11-28T14:25:30;100480.00;;;13.04;88.60
43420;BME280;29017;51.514;-0.178;2022-11-28T14:27:58;100483.47;;;13.05;88.85
43420;BME280;29017;51.514;-0.178;2022-11-28T14:32:55;100487.41;;;13.09;89.44
43420;BME280;29017;51.514;-0.178;2022-11-28T14:38:34;100486.59;;;13.08;89.39
43420;BME280;29017;51.514;-0.178;2022-11-28T14:40:58;100490.59;;;13.04;89.16
43420;BME280;29017;51.514;-0.178;2022-11-28T14:43:29;100487.94;;;13.04;89.72
43420;BME280;29017;51.514;-0.178;2022-11-28T14:48:34;100499.13;;;13.06;89.48
43420;BME280;29017;51.514;-0.178;2022-11-28T14:51:02;100500.78;;;13.07;89.55
43420;BME280;29017;51.514;-0.178;2022-11-28T14:58:45;100503.56;;;13.14;90.03
43420;BME280;29017;51.514;-0.178;2022-11-28T15:01:19;100508.69;;;13.15;89.71
43420;BME280;29017;51.514;-0.178;2022-11-28T15:03:56;100514.59;;;13.17;89.76
43420;BME280;29017;51.514;-0.178;2022-11-28T15:09:47;100516.91;;;13.20;89.53
43420;BME280;29017;51.514;-0.178;2022-11-28T15:12:28;100512.63;;;13.19;88.96
43420;BME280;29017;51.514;-0.178;2022-11-28T15:14:59;100519.72;;;13.19;88.84
43420;BME280;29017;51.514;-0.178;2022-11-28T15:17:28;100520.88;;;13.16;87.85
43420;BME280;29017;51.514;-0.178;2022-11-28T15:20:02;100523.72;;;13.15;88.38
43420;BME280;29017;51.514;-0.178;2022-11-28T15:22:31;100532.47;;;13.15;88.96
43420;BME280;29017;51.514;-0.178;2022-11-28T15:24:59;100528.19;;;13.14;89.12
43420;BME280;29017;51.514;-0.178;2022-11-28T15:27:27;100526.69;;;13.12;89.45
43420;BME280;29017;51.514;-0.178;2022-11-28T15:29:56;100534.13;;;13.08;89.94
43420;BME280;29017;51.514;-0.178;2022-11-28T15:32:25;100536.63;;;13.02;90.10
43420;BME280;29017;51.514;-0.178;2022-11-28T15:34:58;100544.94;;;12.99;90.18
43420;BME280;29017;51.514;-0.178;2022-11-28T15:37:27;100539.19;;;12.95;90.39
43420;BME280;29017;51.514;-0.178;2022-11-28T15:39:55;100551.06;;;12.91;90.29
43420;BME280;29017;51.514;-0.178;2022-11-28T15:47:27;100558.38;;;12.81;90.72
43420;BME280;29017;51.514;-0.178;2022-11-28T15:49:59;100554.94;;;12.80;91.05
43420;BME280;29017;51.514;-0.178;2022-11-28T15:52:28;100564.66;;;12.80;91.41
43420;BME280;29017;51.514;-0.178;2022-11-28T15:55:01;100571.13;;;12.77;91.39
43420;BME280;29017;51.514;-0.178;2022-11-28T15:57:30;100567.34;;;12.72;90.87
43420;BME280;29017;51.514;-0.178;2022-11-28T15:59:58;100574.81;;;12.68;90.37
43420;BME280;29017;51.514;-0.178;2022-11-28T16:02:55;100570.53;;;12.67;90.94
43420;BME280;29017;51.514;-0.178;2022-11-28T16:05:25;100572.34;;;12.67;90.93
43420;BME280;29017;51.514;-0.178;2022-11-28T16:07:55;100566.41;;;12.65;90.67
43420;BME280;29017;51.514;-0.178;2022-11-28T16:10:29;100573.69;;;12.63;90.78
43420;BME280;29017;51.514;-0.178;2022-11-28T16:13:02;100580.94;;;12.61;90.80
43420;BME280;29017;51.514;-0.178;2022-11-28T16:15:30;100586.56;;;12.58;90.79
43420;BME280;29017;51.514;-0.178;2022-11-28T16:17:58;100591.03;;;12.57;91.06
43420;BME280;29017;51.514;-0.178;2022-11-28T16:20:27;100593.00;;;12.55;91.29
43420;BME280;29017;51.514;-0.178;2022-11-28T16:22:57;100592.19;;;12.55;91.77
43420;BME280;29017;51.514;-0.178;2022-11-28T16:25:28;100585.28;;;12.54;92.01
43420;BME280;29017;51.514;-0.178;2022-11-28T16:27:56;100585.09;;;12.55;92.10
43420;BME280;29017;51.514;-0.178;2022-11-28T16:30:31;100598.47;;;12.54;91.86
43420;BME280;29017;51.514;-0.178;2022-11-28T16:35:47;100593.88;;;12.48;91.55
43420;BME280;29017;51.514;-0.178;2022-11-28T16:38:22;100597.66;;;12.45;91.57
43420;BME280;29017;51.514;-0.178;2022-11-28T16:40:50;100603.13;;;12.43;91.76
43420;BME280;29017;51.514;-0.178;2022-11-28T16:45:55;100606.59;;;12.44;91.90
43420;BME280;29017;51.514;-0.178;2022-11-28T16:48:23;100602.94;;;12.45;92.04
43420;BME280;29017;51.514;-0.178;2022-11-28T16:58:47;100601.47;;;12.42;92.09
43420;BME280;29017;51.514;-0.178;2022-11-28T17:01:14;100620.78;;;12.43;92.32
43420;BME280;29017;51.514;-0.178;2022-11-28T17:03:43;100622.44;;;12.44;92.47
43420;BME280;29017;51.514;-0.178;2022-11-28T17:06:12;100620.59;;;12.44;92.77
43420;BME280;29017;51.514;-0.178;2022-11-28T17:08:41;100624.72;;;12.47;92.55
43420;BME280;29017;51.514;-0.178;2022-11-28T17:11:08;100626.69;;;12.45;91.77
43420;BME280;29017;51.514;-0.178;2022-11-28T17:13:36;100638.06;;;12.46;91.66
43420;BME280;29017;51.514;-0.178;2022-11-28T17:16:03;100641.22;;;12.49;92.25
43420;BME280;29017;51.514;-0.178;2022-11-28T17:18:30;100639.22;;;12.51;92.15
43420;BME280;29017;51.514;-0.178;2022-11-28T17:24:17;100648.78;;;12.52;91.06
43420;BME280;29017;51.514;-0.178;2022-11-28T17:26:47;100650.75;;;12.50;88.92
43420;BME280;29017;51.514;-0.178;2022-11-28T17:29:15;100653.59;;;12.49;88.11
43420;BME280;29017;51.514;-0.178;2022-11-28T17:31:45;100655.41;;;12.48;88.36
43420;BME280;29017;51.514;-0.178;2022-11-28T17:34:14;100664.97;;;12.49;88.13
43420;BME280;29017;51.514;-0.178;2022-11-28T17:36:48;100660.66;;;12.48;87.91
43420;BME280;29017;51.514;-0.178;2022-11-28T17:39:17;100667.59;;;12.49;87.46
43420;BME280;29017;51.514;-0.178;2022-11-28T17:41:47;100674.69;;;12.49;87.60